sensor_id;sensor_type;location;lat;lon;timestamp;pressure;altitude;pressure_sealevel;temperature;humidity
15884;BME280;8040;50.254;10.960;2023-12-29T00:00:30;98061.91;;;10.94;77.96
15884;BME280;8040;50.254;10.960;2023-12-29T00:02:55;98046.66;;;10.85;78.28
15884;BME280;8040;50.254;10.960;2023-12-29T00:05:20;98042.66;;;10.82;78.70
15884;BME280;8040;50.254;10.960;2023-12-29T00:07:46;98041.06;;;10.81;78.84
15884;BME280;8040;50.254;10.960;2023-12-29T00:10:11;98039.16;;;10.82;78.89
15884;BME280;8040;50.254;10.960;2023-12-29T00:12:36;98043.56;;;10.78;79.19
15884;BME280;8040;50.254;10.960;2023-12-29T00:15:01;98052.72;;;10.82;78.83
15884;BME280;8040;50.254;10.960;2023-12-29T00:17:27;98048.28;;;10.86;78.72
15884;BME280;8040;50.254;10.960;2023-12-29T00:19:52;98049.75;;;10.92;78.94
15884;BME280;8040;50.254;10.960;2023-12-29T00:22:18;98046.66;;;10.85;79.23
15884;BME280;8040;50.254;10.960;2023-12-29T00:24:44;98050.50;;;10.84;78.97
15884;BME280;8040;50.254;10.960;2023-12-29T00:27:09;98048.78;;;10.88;79.03
15884;BME280;8040;50.254;10.960;2023-12-29T00:29:35;98045.63;;;10.94;79.18
15884;BME280;8040;50.254;10.960;2023-12-29T00:32:00;98047.41;;;10.99;78.89
15884;BME280;8040;50.254;10.960;2023-12-29T00:34:27;98057.31;;;10.95;79.37
15884;BME280;8040;50.254;10.960;2023-12-29T00:36:52;98048.53;;;10.98;79.46
15884;BME280;8040;50.254;10.960;2023-12-29T00:39:17;98044.59;;;11.04;79.31
15884;BME280;8040;50.254;10.960;2023-12-29T00:41:43;98037.56;;;11.03;79.20
15884;BME280;8040;50.254;10.960;2023-12-29T00:44:08;98031.94;;;10.99;78.98
15884;BME280;8040;50.254;10.960;2023-12-29T00:46:33;98033.38;;;10.97;79.22
15884;BME280;8040;50.254;10.960;2023-12-29T00:48:59;98036.56;;;10.99;79.43
15884;BME280;8040;50.254;10.960;2023-12-29T00:51:24;98032.63;;;11.05;79.01
15884;BME280;8040;50.254;10.960;2023-12-29T00:53:49;98022.75;;;11.09;78.87
15884;BME280;8040;50.254;10.960;2023-12-29T00:56:14;98029.44;;;11.03;78.82
15884;BME280;8040;50.254;10.960;2023-12-29T00:58:40;98023.19;;;11.02;78.84
15884;BME280;8040;50.254;10.960;2023-12-29T01:01:06;98023.19;;;11.02;79.04
15884;BME280;8040;50.254;10.960;2023-12-29T01:03:33;98002.50;;;10.93;78.70
15884;BME280;8040;50.254;10.960;2023-12-29T01:05:58;98021.22;;;10.94;78.76
15884;BME280;8040;50.254;10.960;2023-12-29T01:08:23;98015.00;;;10.94;78.85
15884;BME280;8040;50.254;10.960;2023-12-29T01:10:48;98017.56;;;10.99;79.17
15884;BME280;8040;50.254;10.960;2023-12-29T01:13:13;98008.13;;;10.96;78.35
15884;BME280;8040;50.254;10.960;2023-12-29T01:15:39;98002.41;;;10.98;78.29
15884;BME280;8040;50.254;10.960;2023-12-29T01:18:05;97996.50;;;10.96;78.51
15884;BME280;8040;50.254;10.960;2023-12-29T01:20:30;98008.13;;;10.96;78.24
15884;BME280;8040;50.254;10.960;2023-12-29T01:22:56;98006.34;;;10.92;78.18
15884;BME280;8040;50.254;10.960;2023-12-29T01:25:21;98004.31;;;10.97;78.36
15884;BME280;8040;50.254;10.960;2023-12-29T01:27:46;98005.41;;;10.96;78.31
15884;BME280;8040;50.254;10.960;2023-12-29T01:30:12;98009.56;;;10.94;77.92
15884;BME280;8040;50.254;10.960;2023-12-29T01:32:37;97996.03;;;10.80;77.97
15884;BME280;8040;50.254;10.960;2023-12-29T01:35:03;98005.97;;;10.85;77.86
15884;BME280;8040;50.254;10.960;2023-12-29T01:37:28;98000.56;;;10.71;78.19
15884;BME280;8040;50.254;10.960;2023-12-29T01:39:54;98001.63;;;10.62;78.21
15884;BME280;8040;50.254;10.960;2023-12-29T01:42:19;97990.19;;;10.51;78.83
15884;BME280;8040;50.254;10.960;2023-12-29T01:44:44;98003.84;;;10.46;78.41
15884;BME280;8040;50.254;10.960;2023-12-29T01:47:15;98004.88;;;10.50;78.84
15884;BME280;8040;50.254;10.960;2023-12-29T01:49:42;98001.38;;;10.36;78.69
15884;BME280;8040;50.254;10.960;2023-12-29T01:52:09;97993.66;;;10.30;78.81
15884;BME280;8040;50.254;10.960;2023-12-29T01:54:34;97988.22;;;10.30;78.36
15884;BME280;8040;50.254;10.960;2023-12-29T01:57:01;97984.69;;;10.29;78.70
15884;BME280;8040;50.254;10.960;2023-12-29T01:59:27;97982.91;;;10.25;78.71
15884;BME280;8040;50.254;10.960;2023-12-29T02:01:53;97993.66;;;10.30;78.82
15884;BME280;8040;50.254;10.960;2023-12-29T02:04:20;97993.06;;;10.19;78.73
15884;BME280;8040;50.254;10.960;2023-12-29T02:06:45;97986.53;;;10.20;78.42
15884;BME280;8040;50.254;10.960;2023-12-29T02:09:11;97989.06;;;10.17;78.49
15884;BME280;8040;50.254;10.960;2023-12-29T02:11:37;97986.44;;;10.12;78.12
15884;BME280;8040;50.254;10.960;2023-12-29T02:14:03;97982.63;;;10.13;77.91
15884;BME280;8040;50.254;10.960;2023-12-29T02:16:36;97978.31;;;10.12;78.31
15884;BME280;8040;50.254;10.960;2023-12-29T02:19:04;97987.44;;;10.16;78.11
15884;BME280;8040;50.254;10.960;2023-12-29T02:21:33;97982.03;;;10.16;78.03
15884;BME280;8040;50.254;10.960;2023-12-29T02:23:59;97980.25;;;10.11;78.54
15884;BME280;8040;50.254;10.960;2023-12-29T02:26:24;97978.50;;;10.15;78.35
15884;BME280;8040;50.254;10.960;2023-12-29T02:28:53;97978.69;;;10.19;78.69
15884;BME280;8040;50.254;10.960;2023-12-29T02:31:20;97971.69;;;10.18;78.11
15884;BME280;8040;50.254;10.960;2023-12-29T02:33:48;97971.78;;;10.13;77.78
15884;BME280;8040;50.254;10.960;2023-12-29T02:36:15;97971.69;;;10.18;77.84
15884;BME280;8040;50.254;10.960;2023-12-29T02:38:41;97968.88;;;10.23;78.36
15884;BME280;8040;50.254;10.960;2023-12-29T02:41:06;97961.31;;;10.20;77.85
15884;BME280;8040;50.254;10.960;2023-12-29T02:43:32;97959.72;;;10.19;77.68
15884;BME280;8040;50.254;10.960;2023-12-29T02:45:57;97962.97;;;10.21;77.42
15884;BME280;8040;50.254;10.960;2023-12-29T02:48:23;97961.66;;;10.18;77.47
15884;BME280;8040;50.254;10.960;2023-12-29T02:50:48;97950.72;;;10.10;77.75
15884;BME280;8040;50.254;10.960;2023-12-29T02:53:13;97952.72;;;10.18;78.11
15884;BME280;8040;50.254;10.960;2023-12-29T02:55:39;97952.72;;;10.18;77.92
15884;BME280;8040;50.254;10.960;2023-12-29T02:58:04;97947.28;;;10.18;77.72
15884;BME280;8040;50.254;10.960;2023-12-29T03:00:29;97943.66;;;10.22;77.44
15884;BME280;8040;50.254;10.960;2023-12-29T03:02:54;97947.59;;;10.16;77.68
15884;BME280;8040;50.254;10.960;2023-12-29T03:05:20;97947.28;;;10.18;78.05
15884;BME280;8040;50.254;10.960;2023-12-29T03:07:45;97943.78;;;10.17;77.61
15884;BME280;8040;50.254;10.960;2023-12-29T03:10:10;97936.44;;;10.18;77.93
15884;BME280;8040;50.254;10.960;2023-12-29T03:12:36;97936.81;;;10.25;77.39
15884;BME280;8040;50.254;10.960;2023-12-29T03:15:01;97947.19;;;10.23;77.72
15884;BME280;8040;50.254;10.960;2023-12-29T03:17:26;97940.06;;;10.27;77.01
15884;BME280;8040;50.254;10.960;2023-12-29T03:19:54;97945.66;;;10.30;76.79
15884;BME280;8040;50.254;10.960;2023-12-29T03:22:19;97943.44;;;10.32;76.29
15884;BME280;8040;50.254;10.960;2023-12-29T03:24:46;97939.88;;;10.23;75.91
15884;BME280;8040;50.254;10.960;2023-12-29T03:27:11;97947.06;;;10.28;75.87
15884;BME280;8040;50.254;10.960;2023-12-29T03:29:36;97943.84;;;10.26;75.42
15884;BME280;8040;50.254;10.960;2023-12-29T03:32:02;97946.38;;;10.22;74.76
15884;BME280;8040;50.254;10.960;2023-12-29T03:34:27;97952.50;;;10.28;74.56
15884;BME280;8040;50.254;10.960;2023-12-29T03:36:53;97940.44;;;10.34;74.25
15884;BME280;8040;50.254;10.960;2023-12-29T03:39:18;97933.59;;;10.36;73.95
15884;BME280;8040;50.254;10.960;2023-12-29T03:41:43;97933.16;;;10.43;73.39
15884;BME280;8040;50.254;10.960;2023-12-29T03:44:08;97947.44;;;10.48;73.03
15884;BME280;8040;50.254;10.960;2023-12-29T03:46:34;97937.06;;;10.50;72.78
15884;BME280;8040;50.254;10.960;2023-12-29T03:48:59;97929.31;;;10.57;72.60
15884;BME280;8040;50.254;10.960;2023-12-29T03:51:24;97927.53;;;10.53;72.35
15884;BME280;8040;50.254;10.960;2023-12-29T03:53:50;97936.78;;;10.52;72.39
15884;BME280;8040;50.254;10.960;2023-12-29T03:56:16;97939.59;;;10.47;72.35
15884;BME280;8040;50.254;10.960;2023-12-29T03:58:42;97930.84;;;10.50;72.41
15884;BME280;8040;50.254;10.960;2023-12-29T04:01:10;97937.06;;;10.50;72.38
15884;BME280;8040;50.254;10.960;2023-12-29T04:03:36;97940.78;;;10.54;72.30
15884;BME280;8040;50.254;10.960;2023-12-29T04:06:01;97941.47;;;10.60;72.43
15884;BME280;8040;50.254;10.960;2023-12-29T04:08:27;97955.63;;;10.57;72.58
15884;BME280;8040;50.254;10.960;2023-12-29T04:10:52;97953.41;;;10.59;73.30
15884;BME280;8040;50.254;10.960;2023-12-29T04:13:17;97956.38;;;10.71;73.14
15884;BME280;8040;50.254;10.960;2023-12-29T04:15:42;97957.38;;;10.75;72.64
15884;BME280;8040;50.254;10.960;2023-12-29T04:18:08;97954.16;;;10.73;72.42
15884;BME280;8040;50.254;10.960;2023-12-29T04:20:33;97940.00;;;10.76;72.15
15884;BME280;8040;50.254;10.960;2023-12-29T04:22:58;97939.56;;;10.82;72.24
15884;BME280;8040;50.254;10.960;2023-12-29T04:25:24;97932.22;;;10.83;72.63
15884;BME280;8040;50.254;10.960;2023-12-29T04:27:49;97932.22;;;10.83;72.55
15884;BME280;8040;50.254;10.960;2023-12-29T04:30:15;97919.38;;;10.75;72.52
15884;BME280;8040;50.254;10.960;2023-12-29T04:32:40;97928.81;;;10.77;72.18
15884;BME280;8040;50.254;10.960;2023-12-29T04:35:05;97923.22;;;10.74;72.32
15884;BME280;8040;50.254;10.960;2023-12-29T04:37:31;97928.97;;;10.72;72.49
15884;BME280;8040;50.254;10.960;2023-12-29T04:39:56;97917.53;;;10.62;72.79
15884;BME280;8040;50.254;10.960;2023-12-29T04:42:21;97924.88;;;10.61;73.03
15884;BME280;8040;50.254;10.960;2023-12-29T04:44:46;97920.88;;;10.59;73.01
15884;BME280;8040;50.254;10.960;2023-12-29T04:47:12;97920.16;;;10.53;73.24
15884;BME280;8040;50.254;10.960;2023-12-29T04:49:37;97922.09;;;10.53;73.40
15884;BME280;8040;50.254;10.960;2023-12-29T04:52:03;97926.47;;;10.62;73.23
15884;BME280;8040;50.254;10.960;2023-12-29T04:54:29;97929.56;;;10.69;73.71
15884;BME280;8040;50.254;10.960;2023-12-29T04:56:54;97929.09;;;10.67;73.30
15884;BME280;8040;50.254;10.960;2023-12-29T04:59:20;97925.66;;;10.62;73.61
15884;BME280;8040;50.254;10.960;2023-12-29T05:01:46;97920.44;;;10.65;73.44
15884;BME280;8040;50.254;10.960;2023-12-29T05:04:11;97918.47;;;10.57;73.88
15884;BME280;8040;50.254;10.960;2023-12-29T05:06:36;97912.56;;;10.55;73.52
15884;BME280;8040;50.254;10.960;2023-12-29T05:09:01;97909.22;;;10.58;74.16
15884;BME280;8040;50.254;10.960;2023-12-29T05:11:30;97910.81;;;10.59;74.24
15884;BME280;8040;50.254;10.960;2023-12-29T05:13:55;97909.41;;;10.62;73.74
15884;BME280;8040;50.254;10.960;2023-12-29T05:16:20;97909.41;;;10.62;73.09
15884;BME280;8040;50.254;10.960;2023-12-29T05:18:46;97913.22;;;10.61;72.96
15884;BME280;8040;50.254;10.960;2023-12-29T05:21:18;97906.19;;;10.60;72.89
15884;BME280;8040;50.254;10.960;2023-12-29T05:23:43;97905.91;;;10.61;73.04
15884;BME280;8040;50.254;10.960;2023-12-29T05:26:09;97906.00;;;10.56;72.33
15884;BME280;8040;50.254;10.960;2023-12-29T05:28:34;97903.41;;;10.51;72.29
15884;BME280;8040;50.254;10.960;2023-12-29T05:30:59;97904.41;;;10.55;71.98
15884;BME280;8040;50.254;10.960;2023-12-29T05:33:28;97906.44;;;10.50;71.55
15884;BME280;8040;50.254;10.960;2023-12-29T05:35:53;97902.63;;;10.51;71.87
15884;BME280;8040;50.254;10.960;2023-12-29T05:38:19;97906.44;;;10.50;71.17
15884;BME280;8040;50.254;10.960;2023-12-29T05:40:44;97912.47;;;10.47;71.28
15884;BME280;8040;50.254;10.960;2023-12-29T05:43:09;97909.41;;;10.40;71.22
15884;BME280;8040;50.254;10.960;2023-12-29T05:45:34;97902.38;;;10.39;71.07
15884;BME280;8040;50.254;10.960;2023-12-29T05:48:00;97903.09;;;10.31;71.38
15884;BME280;8040;50.254;10.960;2023-12-29T05:50:25;97901.09;;;10.23;71.31
15884;BME280;8040;50.254;10.960;2023-12-29T05:52:50;97911.94;;;10.23;71.42
15884;BME280;8040;50.254;10.960;2023-12-29T05:55:17;97908.75;;;10.21;70.74
15884;BME280;8040;50.254;10.960;2023-12-29T05:57:42;97914.75;;;10.31;70.68
15884;BME280;8040;50.254;10.960;2023-12-29T06:00:08;97918.13;;;10.37;70.37
15884;BME280;8040;50.254;10.960;2023-12-29T06:02:39;97918.50;;;10.44;70.37
15884;BME280;8040;50.254;10.960;2023-12-29T06:05:04;97918.69;;;10.47;69.45
15884;BME280;8040;50.254;10.960;2023-12-29T06:07:29;97908.66;;;10.48;68.88
15884;BME280;8040;50.254;10.960;2023-12-29T06:09:55;97903.00;;;10.58;69.78
15884;BME280;8040;50.254;10.960;2023-12-29T06:12:20;97908.06;;;10.51;68.76
15884;BME280;8040;50.254;10.960;2023-12-29T06:14:45;97909.31;;;10.53;68.48
15884;BME280;8040;50.254;10.960;2023-12-29T06:17:10;97904.84;;;10.49;68.44
15884;BME280;8040;50.254;10.960;2023-12-29T06:19:36;97909.88;;;10.42;68.04
15884;BME280;8040;50.254;10.960;2023-12-29T06:22:01;97902.56;;;10.42;68.56
15884;BME280;8040;50.254;10.960;2023-12-29T06:24:26;97896.81;;;10.44;68.22
15884;BME280;8040;50.254;10.960;2023-12-29T06:26:52;97888.41;;;10.32;68.10
15884;BME280;8040;50.254;10.960;2023-12-29T06:29:18;97896.13;;;10.38;68.68
15884;BME280;8040;50.254;10.960;2023-12-29T06:31:43;97896.94;;;10.39;68.25
15884;BME280;8040;50.254;10.960;2023-12-29T06:34:08;97894.09;;;10.44;68.25
15884;BME280;8040;50.254;10.960;2023-12-29T06:36:34;97893.63;;;10.42;68.21
15884;BME280;8040;50.254;10.960;2023-12-29T06:38:59;97891.38;;;10.44;67.76
15884;BME280;8040;50.254;10.960;2023-12-29T06:41:24;97897.44;;;10.41;68.13
15884;BME280;8040;50.254;10.960;2023-12-29T06:43:50;97899.03;;;10.42;67.80
15884;BME280;8040;50.254;10.960;2023-12-29T06:46:15;97902.84;;;10.41;68.30
15884;BME280;8040;50.254;10.960;2023-12-29T06:48:41;97897.63;;;10.44;67.83
15884;BME280;8040;50.254;10.960;2023-12-29T06:51:06;97906.06;;;10.43;67.85
15884;BME280;8040;50.254;10.960;2023-12-29T06:53:32;97899.41;;;10.49;67.85
15884;BME280;8040;50.254;10.960;2023-12-29T06:55:57;97905.47;;;10.46;68.08
15884;BME280;8040;50.254;10.960;2023-12-29T06:58:22;97908.16;;;10.46;67.66
15884;BME280;8040;50.254;10.960;2023-12-29T07:00:48;97917.91;;;10.47;67.46
15884;BME280;8040;50.254;10.960;2023-12-29T07:03:13;97911.84;;;10.50;68.20
15884;BME280;8040;50.254;10.960;2023-12-29T07:05:39;97895.09;;;10.48;67.88
15884;BME280;8040;50.254;10.960;2023-12-29T07:08:05;97927.09;;;10.59;67.85
15884;BME280;8040;50.254;10.960;2023-12-29T07:13:42;97929.31;;;10.57;67.34
15884;BME280;8040;50.254;10.960;2023-12-29T07:16:07;97925.59;;;10.53;67.41
15884;BME280;8040;50.254;10.960;2023-12-29T07:18:33;97925.28;;;10.55;67.63
15884;BME280;8040;50.254;10.960;2023-12-29T07:20:58;97934.53;;;10.54;67.76
15884;BME280;8040;50.254;10.960;2023-12-29T07:23:23;97931.34;;;10.52;68.16
15884;BME280;8040;50.254;10.960;2023-12-29T07:25:49;97932.13;;;10.52;68.26
15884;BME280;8040;50.254;10.960;2023-12-29T07:28:14;97937.47;;;10.44;68.30
15884;BME280;8040;50.254;10.960;2023-12-29T07:30:40;97943.31;;;10.73;69.40
15884;BME280;8040;50.254;10.960;2023-12-29T07:33:05;97939.25;;;10.84;68.87
15884;BME280;8040;50.254;10.960;2023-12-29T07:35:30;97953.41;;;10.81;67.93
15884;BME280;8040;50.254;10.960;2023-12-29T07:37:56;97950.34;;;10.74;68.36
15884;BME280;8040;50.254;10.960;2023-12-29T07:40:21;97950.84;;;10.76;68.39
15884;BME280;8040;50.254;10.960;2023-12-29T07:42:47;97947.09;;;10.85;68.27
15884;BME280;8040;50.254;10.960;2023-12-29T07:45:15;97951.72;;;10.85;67.88
15884;BME280;8040;50.254;10.960;2023-12-29T07:47:40;97946.28;;;10.85;67.89
15884;BME280;8040;50.254;10.960;2023-12-29T07:50:05;97961.16;;;10.87;67.70
15884;BME280;8040;50.254;10.960;2023-12-29T07:52:31;97959.72;;;10.90;67.78
15884;BME280;8040;50.254;10.960;2023-12-29T07:54:57;97967.38;;;11.10;68.22
15884;BME280;8040;50.254;10.960;2023-12-29T07:57:23;97965.78;;;11.09;67.16
15884;BME280;8040;50.254;10.960;2023-12-29T07:59:48;97960.34;;;11.09;66.62
15884;BME280;8040;50.254;10.960;2023-12-29T08:02:13;97962.88;;;11.05;66.77
15884;BME280;8040;50.254;10.960;2023-12-29T08:04:39;97962.88;;;11.05;66.57
15884;BME280;8040;50.254;10.960;2023-12-29T08:07:04;97954.84;;;11.00;66.25
15884;BME280;8040;50.254;10.960;2023-12-29T08:09:30;97953.72;;;11.01;66.51
15884;BME280;8040;50.254;10.960;2023-12-29T08:11:57;97953.31;;;11.08;66.58
15884;BME280;8040;50.254;10.960;2023-12-29T08:14:23;97955.38;;;11.11;66.07
15884;BME280;8040;50.254;10.960;2023-12-29T08:20:10;97955.31;;;11.24;66.12
15884;BME280;8040;50.254;10.960;2023-12-29T08:22:36;97958.69;;;11.21;65.73
15884;BME280;8040;50.254;10.960;2023-12-29T08:25:02;97969.53;;;11.21;65.51
15884;BME280;8040;50.254;10.960;2023-12-29T08:27:28;97958.03;;;11.24;66.20
15884;BME280;8040;50.254;10.960;2023-12-29T08:29:53;97963.69;;;11.36;65.49
15884;BME280;8040;50.254;10.960;2023-12-29T08:32:19;97969.94;;;11.37;64.89
15884;BME280;8040;50.254;10.960;2023-12-29T08:34:44;97964.69;;;11.40;64.80
15884;BME280;8040;50.254;10.960;2023-12-29T08:37:10;97972.38;;;11.47;65.20
15884;BME280;8040;50.254;10.960;2023-12-29T08:39:35;97974.50;;;11.50;64.96
15884;BME280;8040;50.254;10.960;2023-12-29T08:42:02;97976.69;;;11.48;64.71
15884;BME280;8040;50.254;10.960;2023-12-29T08:44:27;97970.66;;;11.51;65.15
15884;BME280;8040;50.254;10.960;2023-12-29T08:46:52;97972.88;;;11.49;64.74
15884;BME280;8040;50.254;10.960;2023-12-29T08:49:17;97966.81;;;11.52;64.84
15884;BME280;8040;50.254;10.960;2023-12-29T08:51:43;97977.06;;;11.55;64.68
15884;BME280;8040;50.254;10.960;2023-12-29T08:54:08;97966.47;;;11.45;64.86
15884;BME280;8040;50.254;10.960;2023-12-29T08:56:34;97964.81;;;11.35;64.89
15884;BME280;8040;50.254;10.960;2023-12-29T08:58:59;97972.28;;;11.30;65.08
15884;BME280;8040;50.254;10.960;2023-12-29T09:01:24;97965.75;;;11.31;65.56
15884;BME280;8040;50.254;10.960;2023-12-29T09:03:53;97974.38;;;11.33;65.40
15884;BME280;8040;50.254;10.960;2023-12-29T09:06:18;97967.06;;;11.42;65.62
15884;BME280;8040;50.254;10.960;2023-12-29T09:08:43;97971.78;;;11.50;65.70
15884;BME280;8040;50.254;10.960;2023-12-29T09:11:09;97972.56;;;11.50;65.43
15884;BME280;8040;50.254;10.960;2023-12-29T09:13:34;97972.81;;;11.62;65.67
15884;BME280;8040;50.254;10.960;2023-12-29T09:15:59;97969.88;;;11.81;65.51
15884;BME280;8040;50.254;10.960;2023-12-29T09:18:25;97974.53;;;11.89;65.19
15884;BME280;8040;50.254;10.960;2023-12-29T09:20:50;97964.63;;;11.93;65.25
15884;BME280;8040;50.254;10.960;2023-12-29T09:23:15;97972.31;;;11.99;64.52
15884;BME280;8040;50.254;10.960;2023-12-29T09:25:41;97978.47;;;12.13;64.75
15884;BME280;8040;50.254;10.960;2023-12-29T09:28:07;97978.91;;;12.07;63.61
15884;BME280;8040;50.254;10.960;2023-12-29T09:30:32;97972.97;;;11.96;63.66
15884;BME280;8040;50.254;10.960;2023-12-29T09:32:57;97972.50;;;11.94;64.11
15884;BME280;8040;50.254;10.960;2023-12-29T09:35:23;97969.75;;;11.94;63.71
15884;BME280;8040;50.254;10.960;2023-12-29T09:37:48;97974.56;;;11.97;63.89
15884;BME280;8040;50.254;10.960;2023-12-29T09:40:16;97975.69;;;11.96;63.94
15884;BME280;8040;50.254;10.960;2023-12-29T09:42:44;97967.34;;;11.93;63.86
15884;BME280;8040;50.254;10.960;2023-12-29T09:45:11;97969.44;;;11.96;63.88
15884;BME280;8040;50.254;10.960;2023-12-29T09:47:40;97962.22;;;11.91;63.73
15884;BME280;8040;50.254;10.960;2023-12-29T09:50:12;97967.06;;;12.03;63.84
15884;BME280;8040;50.254;10.960;2023-12-29T09:52:41;97964.88;;;12.13;63.87
15884;BME280;8040;50.254;10.960;2023-12-29T09:55:10;97956.72;;;12.22;63.24
15884;BME280;8040;50.254;10.960;2023-12-29T09:57:39;97963.44;;;12.16;62.91
15884;BME280;8040;50.254;10.960;2023-12-29T10:00:05;97957.31;;;12.10;62.67
15884;BME280;8040;50.254;10.960;2023-12-29T10:02:31;97959.59;;;12.17;62.74
15884;BME280;8040;50.254;10.960;2023-12-29T10:04:56;97961.16;;;12.09;62.83
15884;BME280;8040;50.254;10.960;2023-12-29T10:07:24;97961.34;;;12.13;62.65
15884;BME280;8040;50.254;10.960;2023-12-29T10:10:00;97966.91;;;12.08;62.49
15884;BME280;8040;50.254;10.960;2023-12-29T10:12:26;97961.16;;;12.09;62.44
15884;BME280;8040;50.254;10.960;2023-12-29T10:20:27;97959.09;;;12.06;62.73
15884;BME280;8040;50.254;10.960;2023-12-29T10:25:28;97952.53;;;12.07;62.04
15884;BME280;8040;50.254;10.960;2023-12-29T10:27:53;97949.97;;;12.11;62.33
15884;BME280;8040;50.254;10.960;2023-12-29T10:30:19;97951.44;;;12.17;62.18
15884;BME280;8040;50.254;10.960;2023-12-29T10:32:49;97955.28;;;12.16;61.54
15884;BME280;8040;50.254;10.960;2023-12-29T10:35:14;97959.75;;;12.12;61.99
15884;BME280;8040;50.254;10.960;2023-12-29T10:37:39;97945.50;;;12.15;62.30
15884;BME280;8040;50.254;10.960;2023-12-29T10:40:05;97948.38;;;12.18;61.88
15884;BME280;8040;50.254;10.960;2023-12-29T10:42:30;97948.22;;;12.15;61.75
15884;BME280;8040;50.254;10.960;2023-12-29T10:45:04;97950.28;;;12.09;61.76
15884;BME280;8040;50.254;10.960;2023-12-29T10:47:30;97946.16;;;12.12;61.91
15884;BME280;8040;50.254;10.960;2023-12-29T10:49:58;97941.16;;;12.05;61.65
15884;BME280;8040;50.254;10.960;2023-12-29T10:52:24;97940.50;;;12.00;61.69
15884;BME280;8040;50.254;10.960;2023-12-29T10:54:49;97946.72;;;11.92;61.56
15884;BME280;8040;50.254;10.960;2023-12-29T10:57:14;97939.06;;;11.94;61.88
15884;BME280;8040;50.254;10.960;2023-12-29T10:59:40;97934.41;;;11.86;62.08
15884;BME280;8040;50.254;10.960;2023-12-29T11:02:05;97935.06;;;11.91;62.25
15884;BME280;8040;50.254;10.960;2023-12-29T11:04:30;97930.91;;;11.94;62.11
15884;BME280;8040;50.254;10.960;2023-12-29T11:06:56;97936.50;;;11.97;61.77
15884;BME280;8040;50.254;10.960;2023-12-29T11:09:28;97933.47;;;11.99;61.77
15884;BME280;8040;50.254;10.960;2023-12-29T11:11:54;97937.66;;;12.05;61.75
15884;BME280;8040;50.254;10.960;2023-12-29T11:14:23;97928.53;;;12.09;61.44
15884;BME280;8040;50.254;10.960;2023-12-29T11:16:49;97928.09;;;12.16;61.63
15884;BME280;8040;50.254;10.960;2023-12-29T11:19:16;97927.75;;;12.26;61.54
15884;BME280;8040;50.254;10.960;2023-12-29T11:21:43;97929.88;;;12.29;61.11
15884;BME280;8040;50.254;10.960;2023-12-29T11:24:09;97927.16;;;12.29;60.33
15884;BME280;8040;50.254;10.960;2023-12-29T11:26:35;97924.91;;;12.31;60.24
15884;BME280;8040;50.254;10.960;2023-12-29T11:29:01;97923.94;;;12.27;60.18
15884;BME280;8040;50.254;10.960;2023-12-29T11:31:26;97914.81;;;12.23;60.60
15884;BME280;8040;50.254;10.960;2023-12-29T11:33:53;97904.88;;;12.18;60.31
15884;BME280;8040;50.254;10.960;2023-12-29T11:36:29;97902.00;;;12.23;60.65
15884;BME280;8040;50.254;10.960;2023-12-29T11:38:58;97884.25;;;12.26;60.62
15884;BME280;8040;50.254;10.960;2023-12-29T11:41:28;97897.38;;;12.24;60.32
15884;BME280;8040;50.254;10.960;2023-12-29T11:43:59;97901.25;;;12.31;60.78
15884;BME280;8040;50.254;10.960;2023-12-29T11:46:34;97891.78;;;12.29;60.41
15884;BME280;8040;50.254;10.960;2023-12-29T11:49:03;97901.88;;;12.37;60.12
15884;BME280;8040;50.254;10.960;2023-12-29T11:51:30;97898.69;;;12.43;60.41
15884;BME280;8040;50.254;10.960;2023-12-29T11:53:56;97894.19;;;12.39;59.87
15884;BME280;8040;50.254;10.960;2023-12-29T11:56:22;97886.50;;;12.32;60.17
15884;BME280;8040;50.254;10.960;2023-12-29T11:58:47;97896.44;;;12.37;60.11
15884;BME280;8040;50.254;10.960;2023-12-29T12:01:12;97894.34;;;12.42;60.50
15884;BME280;8040;50.254;10.960;2023-12-29T12:03:37;97878.22;;;12.46;60.39
15884;BME280;8040;50.254;10.960;2023-12-29T12:06:03;97879.31;;;12.45;60.45
15884;BME280;8040;50.254;10.960;2023-12-29T12:10:57;97893.88;;;12.49;60.26
15884;BME280;8040;50.254;10.960;2023-12-29T12:16:07;97880.94;;;12.37;60.71
15884;BME280;8040;50.254;10.960;2023-12-29T12:18:32;97884.13;;;12.48;61.32
15884;BME280;8040;50.254;10.960;2023-12-29T12:20:58;97887.16;;;12.55;61.72
15884;BME280;8040;50.254;10.960;2023-12-29T12:23:25;97887.78;;;12.60;61.53
15884;BME280;8040;50.254;10.960;2023-12-29T12:25:51;97896.75;;;12.61;61.15
15884;BME280;8040;50.254;10.960;2023-12-29T12:28:22;97880.28;;;12.66;61.59
15884;BME280;8040;50.254;10.960;2023-12-29T12:30:47;97870.38;;;12.44;60.57
15884;BME280;8040;50.254;10.960;2023-12-29T12:33:13;97880.13;;;12.54;60.92
15884;BME280;8040;50.254;10.960;2023-12-29T12:35:39;97867.78;;;12.56;61.44
15884;BME280;8040;50.254;10.960;2023-12-29T12:38:08;97860.41;;;12.48;61.14
15884;BME280;8040;50.254;10.960;2023-12-29T12:40:39;97872.28;;;12.52;61.73
15884;BME280;8040;50.254;10.960;2023-12-29T12:43:05;97859.78;;;12.43;61.26
15884;BME280;8040;50.254;10.960;2023-12-29T12:45:35;97864.25;;;12.39;62.00
15884;BME280;8040;50.254;10.960;2023-12-29T12:48:12;97869.38;;;12.32;62.17
15884;BME280;8040;50.254;10.960;2023-12-29T12:50:42;97863.31;;;12.35;62.26
15884;BME280;8040;50.254;10.960;2023-12-29T12:53:07;97870.03;;;12.29;62.50
15884;BME280;8040;50.254;10.960;2023-12-29T12:55:34;97865.53;;;12.33;63.10
15884;BME280;8040;50.254;10.960;2023-12-29T12:57:59;97866.19;;;12.38;62.80
15884;BME280;8040;50.254;10.960;2023-12-29T13:00:25;97869.88;;;12.34;62.49
15884;BME280;8040;50.254;10.960;2023-12-29T13:02:57;97861.22;;;12.40;62.46
15884;BME280;8040;50.254;10.960;2023-12-29T13:05:24;97868.91;;;12.38;62.47
15884;BME280;8040;50.254;10.960;2023-12-29T13:07:52;97866.03;;;12.26;62.01
15884;BME280;8040;50.254;10.960;2023-12-29T13:10:18;97871.16;;;12.28;62.27
15884;BME280;8040;50.254;10.960;2023-12-29T13:12:51;97864.91;;;12.27;62.46